Terminal Aerodrome Forecast
Issued by NWS Memphis, TN

Home | Current Version | Previous Version | Text Only | Print | Product List | Glossary On
Versions: 1 2 3 4 5 6 7 8 9 10 11 12 13 14 15 16 17 18 19 20 21 22 23 24 25 26 27 28 29 30 31 32
172
FTUS44 KMEG 300923 AAD
TAFMEM
TAF AMD
KMEM 300923Z 3009/0106 16010G18KT P6SM BKN030 OVC050 WS020/18055KT
     FM301100 17017G27KT P6SM -SHRA VCTS BKN025CB BKN250
      WS020/18055KT
      TEMPO 3011/3014 2SM TSRA BKN015CB
     FM301900 19015G25KT P6SM VCSH SCT050 OVC100=

USA.gov is the U.S. government's official web portal to all federal, state and local government web resources and services.